sensor_id;sensor_type;location;lat;lon;timestamp;P1;durP1;ratioP1;P2;durP2;ratioP2
1414;SDS011;702;49.466;11.086;2023-12-29T00:00:49;5.40;;;4.90;;
1414;SDS011;702;49.466;11.086;2023-12-29T00:03:16;5.77;;;4.97;;
1414;SDS011;702;49.466;11.086;2023-12-29T00:05:43;6.73;;;5.30;;
1414;SDS011;702;49.466;11.086;2023-12-29T00:08:10;10.57;;;4.57;;
1414;SDS011;702;49.466;11.086;2023-12-29T00:10:38;4.87;;;4.47;;
1414;SDS011;702;49.466;11.086;2023-12-29T00:13:07;5.70;;;5.20;;
1414;SDS011;702;49.466;11.086;2023-12-29T00:15:35;6.00;;;5.00;;
1414;SDS011;702;49.466;11.086;2023-12-29T00:18:03;7.60;;;4.57;;
1414;SDS011;702;49.466;11.086;2023-12-29T00:20:32;6.33;;;4.60;;
1414;SDS011;702;49.466;11.086;2023-12-29T00:22:59;5.37;;;4.23;;
1414;SDS011;702;49.466;11.086;2023-12-29T00:25:26;8.87;;;5.17;;
1414;SDS011;702;49.466;11.086;2023-12-29T00:27:53;6.23;;;4.13;;
1414;SDS011;702;49.466;11.086;2023-12-29T00:30:25;5.83;;;4.97;;
1414;SDS011;702;49.466;11.086;2023-12-29T00:32:52;6.20;;;4.13;;
1414;SDS011;702;49.466;11.086;2023-12-29T00:35:19;4.87;;;4.30;;
1414;SDS011;702;49.466;11.086;2023-12-29T00:37:46;4.97;;;4.37;;
1414;SDS011;702;49.466;11.086;2023-12-29T00:40:15;6.37;;;4.80;;
1414;SDS011;702;49.466;11.086;2023-12-29T00:42:42;6.27;;;4.27;;
1414;SDS011;702;49.466;11.086;2023-12-29T00:45:11;4.80;;;4.30;;
1414;SDS011;702;49.466;11.086;2023-12-29T00:47:40;7.03;;;4.33;;
1414;SDS011;702;49.466;11.086;2023-12-29T00:50:08;4.60;;;4.13;;
1414;SDS011;702;49.466;11.086;2023-12-29T00:52:36;5.10;;;4.40;;
1414;SDS011;702;49.466;11.086;2023-12-29T00:55:05;4.97;;;4.47;;
1414;SDS011;702;49.466;11.086;2023-12-29T00:57:33;5.00;;;4.43;;
1414;SDS011;702;49.466;11.086;2023-12-29T01:00:02;4.23;;;3.83;;
1414;SDS011;702;49.466;11.086;2023-12-29T01:02:30;6.20;;;4.23;;
1414;SDS011;702;49.466;11.086;2023-12-29T01:04:59;3.60;;;3.30;;
1414;SDS011;702;49.466;11.086;2023-12-29T01:07:26;3.80;;;3.37;;
1414;SDS011;702;49.466;11.086;2023-12-29T01:09:53;4.43;;;3.00;;
1414;SDS011;702;49.466;11.086;2023-12-29T01:12:20;3.90;;;2.90;;
1414;SDS011;702;49.466;11.086;2023-12-29T01:14:49;3.97;;;3.57;;
1414;SDS011;702;49.466;11.086;2023-12-29T01:17:16;4.00;;;3.60;;
1414;SDS011;702;49.466;11.086;2023-12-29T01:19:43;3.10;;;2.63;;
1414;SDS011;702;49.466;11.086;2023-12-29T01:22:12;3.60;;;3.03;;
1414;SDS011;702;49.466;11.086;2023-12-29T01:24:39;3.50;;;3.20;;
1414;SDS011;702;49.466;11.086;2023-12-29T01:27:06;3.30;;;3.00;;
1414;SDS011;702;49.466;11.086;2023-12-29T01:29:34;3.63;;;2.97;;
1414;SDS011;702;49.466;11.086;2023-12-29T01:32:01;3.73;;;3.33;;
1414;SDS011;702;49.466;11.086;2023-12-29T01:34:32;3.60;;;2.93;;
1414;SDS011;702;49.466;11.086;2023-12-29T01:37:02;2.90;;;2.70;;
1414;SDS011;702;49.466;11.086;2023-12-29T01:39:32;3.17;;;2.60;;
1414;SDS011;702;49.466;11.086;2023-12-29T01:42:01;3.67;;;3.00;;
1414;SDS011;702;49.466;11.086;2023-12-29T01:44:29;2.70;;;2.50;;
1414;SDS011;702;49.466;11.086;2023-12-29T01:46:56;3.77;;;2.40;;
1414;SDS011;702;49.466;11.086;2023-12-29T01:49:25;3.53;;;2.47;;
1414;SDS011;702;49.466;11.086;2023-12-29T01:51:55;2.30;;;2.10;;
1414;SDS011;702;49.466;11.086;2023-12-29T01:54:25;3.37;;;2.50;;
1414;SDS011;702;49.466;11.086;2023-12-29T01:57:00;4.13;;;2.90;;
1414;SDS011;702;49.466;11.086;2023-12-29T01:59:29;5.33;;;2.77;;
1414;SDS011;702;49.466;11.086;2023-12-29T02:01:59;2.93;;;2.63;;
1414;SDS011;702;49.466;11.086;2023-12-29T02:04:27;3.20;;;2.90;;
1414;SDS011;702;49.466;11.086;2023-12-29T02:06:55;2.40;;;2.20;;
1414;SDS011;702;49.466;11.086;2023-12-29T02:09:22;3.40;;;2.53;;
1414;SDS011;702;49.466;11.086;2023-12-29T02:11:49;3.10;;;2.87;;
1414;SDS011;702;49.466;11.086;2023-12-29T02:14:19;3.23;;;2.60;;
1414;SDS011;702;49.466;11.086;2023-12-29T02:16:49;3.40;;;2.97;;
1414;SDS011;702;49.466;11.086;2023-12-29T02:19:31;4.33;;;2.80;;
1414;SDS011;702;49.466;11.086;2023-12-29T02:22:05;2.90;;;2.60;;
1414;SDS011;702;49.466;11.086;2023-12-29T02:24:34;3.23;;;2.93;;
1414;SDS011;702;49.466;11.086;2023-12-29T02:27:11;3.30;;;2.83;;
1414;SDS011;702;49.466;11.086;2023-12-29T02:29:53;3.30;;;3.00;;
1414;SDS011;702;49.466;11.086;2023-12-29T02:32:36;3.43;;;3.13;;
1414;SDS011;702;49.466;11.086;2023-12-29T02:35:07;3.93;;;3.40;;
1414;SDS011;702;49.466;11.086;2023-12-29T02:37:37;3.77;;;3.47;;
1414;SDS011;702;49.466;11.086;2023-12-29T02:40:07;3.47;;;3.17;;
1414;SDS011;702;49.466;11.086;2023-12-29T02:42:36;3.40;;;3.10;;
1414;SDS011;702;49.466;11.086;2023-12-29T02:45:04;4.17;;;3.53;;
1414;SDS011;702;49.466;11.086;2023-12-29T02:47:34;5.53;;;3.70;;
1414;SDS011;702;49.466;11.086;2023-12-29T02:50:03;4.43;;;3.73;;
1414;SDS011;702;49.466;11.086;2023-12-29T02:52:31;3.87;;;3.57;;
1414;SDS011;702;49.466;11.086;2023-12-29T02:54:58;5.57;;;3.90;;
1414;SDS011;702;49.466;11.086;2023-12-29T02:57:26;4.80;;;4.30;;
1414;SDS011;702;49.466;11.086;2023-12-29T02:59:57;5.10;;;4.30;;
1414;SDS011;702;49.466;11.086;2023-12-29T03:02:25;4.83;;;4.40;;
1414;SDS011;702;49.466;11.086;2023-12-29T03:04:52;5.53;;;5.03;;
1414;SDS011;702;49.466;11.086;2023-12-29T03:07:22;4.67;;;4.17;;
1414;SDS011;702;49.466;11.086;2023-12-29T03:09:53;5.37;;;4.87;;
1414;SDS011;702;49.466;11.086;2023-12-29T03:12:21;5.23;;;4.73;;
1414;SDS011;702;49.466;11.086;2023-12-29T03:14:48;5.77;;;4.50;;
1414;SDS011;702;49.466;11.086;2023-12-29T03:17:19;5.77;;;5.27;;
1414;SDS011;702;49.466;11.086;2023-12-29T03:19:47;6.33;;;5.20;;
1414;SDS011;702;49.466;11.086;2023-12-29T03:22:14;6.00;;;5.40;;
1414;SDS011;702;49.466;11.086;2023-12-29T03:24:41;5.53;;;5.03;;
1414;SDS011;702;49.466;11.086;2023-12-29T03:27:09;5.40;;;4.93;;
1414;SDS011;702;49.466;11.086;2023-12-29T03:29:36;6.40;;;5.20;;
1414;SDS011;702;49.466;11.086;2023-12-29T03:32:04;5.37;;;4.93;;
1414;SDS011;702;49.466;11.086;2023-12-29T03:34:34;5.50;;;4.87;;
1414;SDS011;702;49.466;11.086;2023-12-29T03:37:02;5.13;;;4.63;;
1414;SDS011;702;49.466;11.086;2023-12-29T03:39:31;5.73;;;5.10;;
1414;SDS011;702;49.466;11.086;2023-12-29T03:42:01;5.40;;;4.90;;
1414;SDS011;702;49.466;11.086;2023-12-29T03:44:28;5.70;;;5.10;;
1414;SDS011;702;49.466;11.086;2023-12-29T03:46:55;6.50;;;4.87;;
1414;SDS011;702;49.466;11.086;2023-12-29T03:49:23;9.60;;;5.23;;
1414;SDS011;702;49.466;11.086;2023-12-29T03:51:53;6.03;;;5.23;;
1414;SDS011;702;49.466;11.086;2023-12-29T03:54:20;7.03;;;5.50;;
1414;SDS011;702;49.466;11.086;2023-12-29T03:56:47;6.60;;;5.90;;
1414;SDS011;702;49.466;11.086;2023-12-29T03:59:15;6.30;;;5.70;;
1414;SDS011;702;49.466;11.086;2023-12-29T04:01:43;7.70;;;5.80;;
1414;SDS011;702;49.466;11.086;2023-12-29T04:04:11;7.80;;;5.37;;
1414;SDS011;702;49.466;11.086;2023-12-29T04:06:39;6.90;;;6.17;;
1414;SDS011;702;49.466;11.086;2023-12-29T04:09:07;7.93;;;5.73;;
1414;SDS011;702;49.466;11.086;2023-12-29T04:11:34;10.10;;;5.97;;
1414;SDS011;702;49.466;11.086;2023-12-29T04:14:02;6.10;;;5.17;;
1414;SDS011;702;49.466;11.086;2023-12-29T04:16:29;5.67;;;4.93;;
1414;SDS011;702;49.466;11.086;2023-12-29T04:18:56;6.77;;;5.73;;
1414;SDS011;702;49.466;11.086;2023-12-29T04:21:24;6.73;;;6.00;;
1414;SDS011;702;49.466;11.086;2023-12-29T04:23:51;7.27;;;5.73;;
1414;SDS011;702;49.466;11.086;2023-12-29T04:26:22;6.20;;;5.60;;
1414;SDS011;702;49.466;11.086;2023-12-29T04:28:51;6.83;;;5.60;;
1414;SDS011;702;49.466;11.086;2023-12-29T04:31:18;6.40;;;5.80;;
1414;SDS011;702;49.466;11.086;2023-12-29T04:33:46;9.47;;;6.50;;
1414;SDS011;702;49.466;11.086;2023-12-29T04:36:14;9.00;;;6.43;;
1414;SDS011;702;49.466;11.086;2023-12-29T04:38:41;7.40;;;5.80;;
1414;SDS011;702;49.466;11.086;2023-12-29T04:41:11;6.03;;;5.43;;
1414;SDS011;702;49.466;11.086;2023-12-29T04:43:41;7.57;;;6.57;;
1414;SDS011;702;49.466;11.086;2023-12-29T04:46:08;7.20;;;6.50;;
1414;SDS011;702;49.466;11.086;2023-12-29T04:48:35;7.73;;;5.80;;
1414;SDS011;702;49.466;11.086;2023-12-29T04:51:03;6.10;;;5.47;;
1414;SDS011;702;49.466;11.086;2023-12-29T04:53:30;6.40;;;5.63;;
1414;SDS011;702;49.466;11.086;2023-12-29T04:55:58;5.63;;;4.90;;
1414;SDS011;702;49.466;11.086;2023-12-29T04:58:27;9.00;;;5.30;;
1414;SDS011;702;49.466;11.086;2023-12-29T05:00:56;6.23;;;5.33;;
1414;SDS011;702;49.466;11.086;2023-12-29T05:03:23;7.50;;;5.43;;
1414;SDS011;702;49.466;11.086;2023-12-29T05:05:51;6.73;;;4.70;;
1414;SDS011;702;49.466;11.086;2023-12-29T05:08:19;4.80;;;4.30;;
1414;SDS011;702;49.466;11.086;2023-12-29T05:10:52;5.37;;;4.50;;
1414;SDS011;702;49.466;11.086;2023-12-29T05:13:20;4.83;;;4.33;;
1414;SDS011;702;49.466;11.086;2023-12-29T05:15:49;4.93;;;4.43;;
1414;SDS011;702;49.466;11.086;2023-12-29T05:18:18;4.40;;;3.97;;
1414;SDS011;702;49.466;11.086;2023-12-29T05:20:47;7.33;;;3.80;;
1414;SDS011;702;49.466;11.086;2023-12-29T05:23:21;5.10;;;4.23;;
1414;SDS011;702;49.466;11.086;2023-12-29T05:25:48;4.77;;;3.97;;
1414;SDS011;702;49.466;11.086;2023-12-29T05:28:15;4.83;;;4.27;;
1414;SDS011;702;49.466;11.086;2023-12-29T05:30:43;6.03;;;4.90;;
1414;SDS011;702;49.466;11.086;2023-12-29T05:33:10;6.17;;;5.00;;
1414;SDS011;702;49.466;11.086;2023-12-29T05:35:39;7.00;;;6.30;;
1414;SDS011;702;49.466;11.086;2023-12-29T05:38:06;6.33;;;4.87;;
1414;SDS011;702;49.466;11.086;2023-12-29T05:40:36;6.63;;;4.90;;
1414;SDS011;702;49.466;11.086;2023-12-29T05:43:03;5.20;;;4.70;;
1414;SDS011;702;49.466;11.086;2023-12-29T05:45:35;6.23;;;5.30;;
1414;SDS011;702;49.466;11.086;2023-12-29T05:48:04;5.73;;;5.10;;
1414;SDS011;702;49.466;11.086;2023-12-29T05:50:32;12.73;;;5.93;;
1414;SDS011;702;49.466;11.086;2023-12-29T05:53:04;5.60;;;5.03;;
1414;SDS011;702;49.466;11.086;2023-12-29T05:55:32;5.67;;;5.17;;
1414;SDS011;702;49.466;11.086;2023-12-29T05:58:00;9.20;;;6.03;;
1414;SDS011;702;49.466;11.086;2023-12-29T06:00:28;7.50;;;5.20;;
1414;SDS011;702;49.466;11.086;2023-12-29T06:02:56;6.83;;;6.07;;
1414;SDS011;702;49.466;11.086;2023-12-29T06:05:23;7.03;;;6.23;;
1414;SDS011;702;49.466;11.086;2023-12-29T06:07:51;8.37;;;6.23;;
1414;SDS011;702;49.466;11.086;2023-12-29T06:10:20;6.83;;;5.90;;
1414;SDS011;702;49.466;11.086;2023-12-29T06:12:47;6.80;;;6.10;;
1414;SDS011;702;49.466;11.086;2023-12-29T06:15:15;8.47;;;6.73;;
1414;SDS011;702;49.466;11.086;2023-12-29T06:17:43;9.33;;;6.87;;
1414;SDS011;702;49.466;11.086;2023-12-29T06:20:10;7.30;;;6.43;;
1414;SDS011;702;49.466;11.086;2023-12-29T06:22:40;10.53;;;6.50;;
1414;SDS011;702;49.466;11.086;2023-12-29T06:25:08;6.77;;;6.17;;
1414;SDS011;702;49.466;11.086;2023-12-29T06:27:38;8.93;;;6.87;;
1414;SDS011;702;49.466;11.086;2023-12-29T06:30:06;7.43;;;6.10;;
1414;SDS011;702;49.466;11.086;2023-12-29T06:32:35;9.77;;;7.57;;
1414;SDS011;702;49.466;11.086;2023-12-29T06:35:04;10.20;;;6.73;;
1414;SDS011;702;49.466;11.086;2023-12-29T06:37:32;8.33;;;6.43;;
1414;SDS011;702;49.466;11.086;2023-12-29T06:40:00;8.73;;;6.73;;
1414;SDS011;702;49.466;11.086;2023-12-29T06:42:27;7.47;;;6.40;;
1414;SDS011;702;49.466;11.086;2023-12-29T06:44:56;10.07;;;6.47;;
1414;SDS011;702;49.466;11.086;2023-12-29T06:47:24;9.13;;;6.87;;
1414;SDS011;702;49.466;11.086;2023-12-29T06:49:51;10.10;;;7.10;;
1414;SDS011;702;49.466;11.086;2023-12-29T06:52:19;7.73;;;6.90;;
1414;SDS011;702;49.466;11.086;2023-12-29T06:54:46;9.40;;;6.30;;
1414;SDS011;702;49.466;11.086;2023-12-29T06:57:13;6.57;;;5.90;;
1414;SDS011;702;49.466;11.086;2023-12-29T06:59:43;7.90;;;5.63;;
1414;SDS011;702;49.466;11.086;2023-12-29T07:02:12;8.37;;;6.03;;
1414;SDS011;702;49.466;11.086;2023-12-29T07:04:41;6.47;;;5.90;;
1414;SDS011;702;49.466;11.086;2023-12-29T07:07:10;9.47;;;6.17;;
1414;SDS011;702;49.466;11.086;2023-12-29T07:09:39;6.80;;;6.10;;
1414;SDS011;702;49.466;11.086;2023-12-29T07:12:07;9.43;;;6.23;;
1414;SDS011;702;49.466;11.086;2023-12-29T07:14:36;11.77;;;6.10;;
1414;SDS011;702;49.466;11.086;2023-12-29T07:17:03;6.40;;;5.30;;
1414;SDS011;702;49.466;11.086;2023-12-29T07:19:35;6.87;;;6.00;;
1414;SDS011;702;49.466;11.086;2023-12-29T07:22:03;6.40;;;5.70;;
1414;SDS011;702;49.466;11.086;2023-12-29T07:24:32;6.37;;;5.60;;
1414;SDS011;702;49.466;11.086;2023-12-29T07:27:02;6.97;;;5.67;;
1414;SDS011;702;49.466;11.086;2023-12-29T07:29:30;6.40;;;5.70;;
1414;SDS011;702;49.466;11.086;2023-12-29T07:31:58;6.00;;;5.37;;
1414;SDS011;702;49.466;11.086;2023-12-29T07:34:26;5.90;;;5.30;;
1414;SDS011;702;49.466;11.086;2023-12-29T07:36:57;6.13;;;5.30;;
1414;SDS011;702;49.466;11.086;2023-12-29T07:39:25;6.40;;;5.80;;
1414;SDS011;702;49.466;11.086;2023-12-29T07:41:55;6.17;;;5.57;;
1414;SDS011;702;49.466;11.086;2023-12-29T07:44:22;6.27;;;5.70;;
1414;SDS011;702;49.466;11.086;2023-12-29T07:46:50;6.00;;;5.40;;
1414;SDS011;702;49.466;11.086;2023-12-29T07:49:18;6.10;;;5.20;;
1414;SDS011;702;49.466;11.086;2023-12-29T07:51:46;6.63;;;5.93;;
1414;SDS011;702;49.466;11.086;2023-12-29T07:54:15;7.23;;;5.80;;
1414;SDS011;702;49.466;11.086;2023-12-29T07:56:43;7.13;;;5.30;;
1414;SDS011;702;49.466;11.086;2023-12-29T07:59:10;5.57;;;4.87;;
1414;SDS011;702;49.466;11.086;2023-12-29T08:01:38;8.20;;;6.17;;
1414;SDS011;702;49.466;11.086;2023-12-29T08:04:05;6.03;;;5.37;;
1414;SDS011;702;49.466;11.086;2023-12-29T08:06:33;6.03;;;5.50;;
1414;SDS011;702;49.466;11.086;2023-12-29T08:09:03;8.10;;;6.10;;
1414;SDS011;702;49.466;11.086;2023-12-29T08:11:33;6.03;;;5.50;;
1414;SDS011;702;49.466;11.086;2023-12-29T08:14:01;6.00;;;5.17;;
1414;SDS011;702;49.466;11.086;2023-12-29T08:16:28;6.63;;;4.70;;
1414;SDS011;702;49.466;11.086;2023-12-29T08:18:55;5.00;;;4.50;;
1414;SDS011;702;49.466;11.086;2023-12-29T08:21:23;4.23;;;3.83;;
1414;SDS011;702;49.466;11.086;2023-12-29T08:23:50;5.37;;;4.87;;
1414;SDS011;702;49.466;11.086;2023-12-29T08:26:18;5.90;;;5.20;;
1414;SDS011;702;49.466;11.086;2023-12-29T08:28:46;7.10;;;4.60;;
1414;SDS011;702;49.466;11.086;2023-12-29T08:31:14;3.30;;;3.00;;
1414;SDS011;702;49.466;11.086;2023-12-29T08:33:42;6.23;;;3.73;;
1414;SDS011;702;49.466;11.086;2023-12-29T08:36:10;3.73;;;3.40;;
1414;SDS011;702;49.466;11.086;2023-12-29T08:38:38;2.83;;;2.53;;
1414;SDS011;702;49.466;11.086;2023-12-29T08:41:06;3.53;;;2.13;;
1414;SDS011;702;49.466;11.086;2023-12-29T08:43:33;2.43;;;1.37;;
1414;SDS011;702;49.466;11.086;2023-12-29T08:46:03;5.30;;;1.70;;
1414;SDS011;702;49.466;11.086;2023-12-29T08:48:30;1.73;;;1.60;;
1414;SDS011;702;49.466;11.086;2023-12-29T08:50:58;1.80;;;1.70;;
1414;SDS011;702;49.466;11.086;2023-12-29T08:53:35;2.37;;;1.73;;
1414;SDS011;702;49.466;11.086;2023-12-29T08:56:03;3.80;;;1.50;;
1414;SDS011;702;49.466;11.086;2023-12-29T08:58:31;1.57;;;1.47;;
1414;SDS011;702;49.466;11.086;2023-12-29T09:00:59;1.37;;;1.20;;
1414;SDS011;702;49.466;11.086;2023-12-29T09:03:32;2.20;;;1.50;;
1414;SDS011;702;49.466;11.086;2023-12-29T09:05:59;1.20;;;1.10;;
1414;SDS011;702;49.466;11.086;2023-12-29T09:08:28;1.37;;;1.10;;
1414;SDS011;702;49.466;11.086;2023-12-29T09:10:55;1.53;;;1.40;;
1414;SDS011;702;49.466;11.086;2023-12-29T09:13:24;1.33;;;1.23;;
1414;SDS011;702;49.466;11.086;2023-12-29T09:15:52;1.47;;;1.37;;
1414;SDS011;702;49.466;11.086;2023-12-29T09:18:21;1.67;;;1.37;;
1414;SDS011;702;49.466;11.086;2023-12-29T09:20:51;1.33;;;1.23;;
1414;SDS011;702;49.466;11.086;2023-12-29T09:23:18;1.67;;;1.10;;
1414;SDS011;702;49.466;11.086;2023-12-29T09:25:46;3.13;;;1.10;;
1414;SDS011;702;49.466;11.086;2023-12-29T09:28:14;1.50;;;1.40;;
1414;SDS011;702;49.466;11.086;2023-12-29T09:30:42;1.37;;;1.20;;
1414;SDS011;702;49.466;11.086;2023-12-29T09:33:09;2.23;;;1.40;;
1414;SDS011;702;49.466;11.086;2023-12-29T09:35:37;1.67;;;1.57;;
1414;SDS011;702;49.466;11.086;2023-12-29T09:38:06;1.43;;;1.33;;
1414;SDS011;702;49.466;11.086;2023-12-29T09:40:35;1.90;;;1.80;;
1414;SDS011;702;49.466;11.086;2023-12-29T09:43:02;1.90;;;1.70;;
1414;SDS011;702;49.466;11.086;2023-12-29T09:45:31;2.57;;;1.40;;
1414;SDS011;702;49.466;11.086;2023-12-29T09:48:05;2.20;;;1.90;;
1414;SDS011;702;49.466;11.086;2023-12-29T09:50:35;1.90;;;1.70;;
1414;SDS011;702;49.466;11.086;2023-12-29T09:53:03;1.67;;;1.43;;
1414;SDS011;702;49.466;11.086;2023-12-29T09:55:32;1.60;;;1.50;;
1414;SDS011;702;49.466;11.086;2023-12-29T09:58:00;1.53;;;1.30;;
1414;SDS011;702;49.466;11.086;2023-12-29T10:00:29;2.50;;;2.03;;
1414;SDS011;702;49.466;11.086;2023-12-29T10:02:57;2.60;;;1.90;;
1414;SDS011;702;49.466;11.086;2023-12-29T10:05:25;2.07;;;1.83;;
1414;SDS011;702;49.466;11.086;2023-12-29T10:07:52;3.47;;;2.50;;
1414;SDS011;702;49.466;11.086;2023-12-29T10:10:20;5.00;;;2.20;;
1414;SDS011;702;49.466;11.086;2023-12-29T10:12:51;2.63;;;2.40;;
1414;SDS011;702;49.466;11.086;2023-12-29T10:15:20;3.97;;;2.90;;
1414;SDS011;702;49.466;11.086;2023-12-29T10:17:59;3.40;;;2.30;;
1414;SDS011;702;49.466;11.086;2023-12-29T10:20:39;1.97;;;1.80;;
1414;SDS011;702;49.466;11.086;2023-12-29T10:23:12;1.87;;;1.43;;
1414;SDS011;702;49.466;11.086;2023-12-29T10:25:43;2.57;;;2.30;;
1414;SDS011;702;49.466;11.086;2023-12-29T10:28:13;2.73;;;2.00;;
1414;SDS011;702;49.466;11.086;2023-12-29T10:30:44;2.43;;;2.20;;
1414;SDS011;702;49.466;11.086;2023-12-29T10:33:11;2.20;;;1.73;;
1414;SDS011;702;49.466;11.086;2023-12-29T10:35:56;1.80;;;1.70;;
1414;SDS011;702;49.466;11.086;2023-12-29T10:38:27;2.53;;;2.00;;
1414;SDS011;702;49.466;11.086;2023-12-29T10:40:55;2.33;;;2.13;;
1414;SDS011;702;49.466;11.086;2023-12-29T10:43:40;2.80;;;2.50;;
1414;SDS011;702;49.466;11.086;2023-12-29T10:46:09;4.00;;;3.60;;
1414;SDS011;702;49.466;11.086;2023-12-29T10:48:38;6.80;;;4.17;;
1414;SDS011;702;49.466;11.086;2023-12-29T10:51:05;6.23;;;4.43;;
1414;SDS011;702;49.466;11.086;2023-12-29T10:53:33;7.43;;;4.23;;
1414;SDS011;702;49.466;11.086;2023-12-29T10:56:02;5.10;;;4.40;;
1414;SDS011;702;49.466;11.086;2023-12-29T10:58:30;5.90;;;4.90;;
1414;SDS011;702;49.466;11.086;2023-12-29T11:01:04;4.60;;;4.20;;
1414;SDS011;702;49.466;11.086;2023-12-29T11:03:48;5.43;;;4.93;;
1414;SDS011;702;49.466;11.086;2023-12-29T11:06:26;5.60;;;4.67;;
1414;SDS011;702;49.466;11.086;2023-12-29T11:08:54;5.00;;;4.60;;
1414;SDS011;702;49.466;11.086;2023-12-29T11:11:22;4.60;;;4.03;;
1414;SDS011;702;49.466;11.086;2023-12-29T11:13:50;6.00;;;4.40;;
1414;SDS011;702;49.466;11.086;2023-12-29T11:16:24;6.73;;;5.03;;
1414;SDS011;702;49.466;11.086;2023-12-29T11:18:52;5.70;;;4.87;;
1414;SDS011;702;49.466;11.086;2023-12-29T11:21:22;6.60;;;5.00;;
1414;SDS011;702;49.466;11.086;2023-12-29T11:23:53;5.17;;;4.67;;
1414;SDS011;702;49.466;11.086;2023-12-29T11:26:22;5.63;;;5.13;;
1414;SDS011;702;49.466;11.086;2023-12-29T11:28:50;7.10;;;5.23;;
1414;SDS011;702;49.466;11.086;2023-12-29T11:31:20;6.07;;;5.47;;
1414;SDS011;702;49.466;11.086;2023-12-29T11:33:50;6.67;;;5.40;;
1414;SDS011;702;49.466;11.086;2023-12-29T11:36:24;5.73;;;5.23;;
1414;SDS011;702;49.466;11.086;2023-12-29T11:38:59;5.63;;;5.10;;
1414;SDS011;702;49.466;11.086;2023-12-29T11:41:38;5.77;;;4.90;;
1414;SDS011;702;49.466;11.086;2023-12-29T11:44:10;5.93;;;5.23;;
1414;SDS011;702;49.466;11.086;2023-12-29T11:46:37;5.90;;;5.37;;
1414;SDS011;702;49.466;11.086;2023-12-29T11:49:05;5.90;;;5.37;;
1414;SDS011;702;49.466;11.086;2023-12-29T11:51:35;7.20;;;5.07;;
1414;SDS011;702;49.466;11.086;2023-12-29T11:54:06;7.20;;;5.17;;
1414;SDS011;702;49.466;11.086;2023-12-29T11:56:34;5.87;;;5.17;;
1414;SDS011;702;49.466;11.086;2023-12-29T11:59:14;5.20;;;4.70;;
1414;SDS011;702;49.466;11.086;2023-12-29T12:01:43;6.00;;;5.50;;
1414;SDS011;702;49.466;11.086;2023-12-29T12:07:16;5.80;;;4.77;;
1414;SDS011;702;49.466;11.086;2023-12-29T12:12:58;3.93;;;3.53;;
1414;SDS011;702;49.466;11.086;2023-12-29T12:15:31;2.97;;;2.67;;
1414;SDS011;702;49.466;11.086;2023-12-29T12:17:59;2.97;;;2.67;;
1414;SDS011;702;49.466;11.086;2023-12-29T12:20:31;4.77;;;2.20;;
1414;SDS011;702;49.466;11.086;2023-12-29T12:23:00;1.60;;;1.50;;
1414;SDS011;702;49.466;11.086;2023-12-29T12:25:30;3.23;;;1.60;;
1414;SDS011;702;49.466;11.086;2023-12-29T12:28:00;1.70;;;1.60;;
1414;SDS011;702;49.466;11.086;2023-12-29T12:30:31;1.53;;;1.37;;
1414;SDS011;702;49.466;11.086;2023-12-29T12:33:02;2.10;;;1.40;;
1414;SDS011;702;49.466;11.086;2023-12-29T12:35:32;1.43;;;1.33;;
1414;SDS011;702;49.466;11.086;2023-12-29T12:38:06;1.73;;;1.13;;
1414;SDS011;702;49.466;11.086;2023-12-29T12:40:35;1.20;;;1.10;;
1414;SDS011;702;49.466;11.086;2023-12-29T12:43:03;1.40;;;1.20;;
1414;SDS011;702;49.466;11.086;2023-12-29T12:45:33;1.10;;;0.97;;
1414;SDS011;702;49.466;11.086;2023-12-29T12:48:09;0.97;;;0.93;;
1414;SDS011;702;49.466;11.086;2023-12-29T12:50:43;1.50;;;0.83;;
1414;SDS011;702;49.466;11.086;2023-12-29T12:53:12;1.00;;;1.00;;
1414;SDS011;702;49.466;11.086;2023-12-29T12:55:46;1.20;;;1.10;;
1414;SDS011;702;49.466;11.086;2023-12-29T12:58:15;0.93;;;0.83;;
1414;SDS011;702;49.466;11.086;2023-12-29T13:00:43;2.07;;;0.73;;
1414;SDS011;702;49.466;11.086;2023-12-29T13:03:11;1.23;;;1.13;;
1414;SDS011;702;49.466;11.086;2023-12-29T13:05:39;1.80;;;1.20;;
1414;SDS011;702;49.466;11.086;2023-12-29T13:08:08;1.93;;;1.10;;
1414;SDS011;702;49.466;11.086;2023-12-29T13:10:40;2.10;;;1.07;;
1414;SDS011;702;49.466;11.086;2023-12-29T13:13:08;1.47;;;1.10;;
1414;SDS011;702;49.466;11.086;2023-12-29T13:15:35;1.47;;;1.37;;
1414;SDS011;702;49.466;11.086;2023-12-29T13:18:13;2.43;;;1.20;;
1414;SDS011;702;49.466;11.086;2023-12-29T13:20:43;1.60;;;1.20;;
1414;SDS011;702;49.466;11.086;2023-12-29T13:23:13;2.10;;;1.23;;
1414;SDS011;702;49.466;11.086;2023-12-29T13:25:42;1.10;;;1.00;;
1414;SDS011;702;49.466;11.086;2023-12-29T13:28:13;1.07;;;1.00;;
1414;SDS011;702;49.466;11.086;2023-12-29T13:30:43;1.20;;;1.10;;
1414;SDS011;702;49.466;11.086;2023-12-29T13:33:14;1.67;;;1.30;;
1414;SDS011;702;49.466;11.086;2023-12-29T13:35:47;2.50;;;1.13;;
1414;SDS011;702;49.466;11.086;2023-12-29T13:38:22;3.70;;;1.47;;
1414;SDS011;702;49.466;11.086;2023-12-29T13:40:55;1.50;;;1.40;;
1414;SDS011;702;49.466;11.086;2023-12-29T13:43:27;2.07;;;1.10;;
1414;SDS011;702;49.466;11.086;2023-12-29T13:45:58;2.13;;;1.30;;
1414;SDS011;702;49.466;11.086;2023-12-29T13:48:26;1.50;;;1.10;;
1414;SDS011;702;49.466;11.086;2023-12-29T13:50:57;1.63;;;1.23;;
1414;SDS011;702;49.466;11.086;2023-12-29T13:53:26;1.70;;;1.40;;
1414;SDS011;702;49.466;11.086;2023-12-29T13:56:05;1.80;;;1.53;;
1414;SDS011;702;49.466;11.086;2023-12-29T13:58:33;1.53;;;1.40;;
1414;SDS011;702;49.466;11.086;2023-12-29T14:01:00;2.47;;;1.77;;
1414;SDS011;702;49.466;11.086;2023-12-29T14:03:31;2.03;;;1.43;;
1414;SDS011;702;49.466;11.086;2023-12-29T14:06:07;1.73;;;1.00;;
1414;SDS011;702;49.466;11.086;2023-12-29T14:08:39;1.03;;;0.90;;
1414;SDS011;702;49.466;11.086;2023-12-29T14:11:11;1.53;;;0.90;;
1414;SDS011;702;49.466;11.086;2023-12-29T14:13:40;3.43;;;1.40;;
1414;SDS011;702;49.466;11.086;2023-12-29T14:16:09;2.80;;;1.60;;
1414;SDS011;702;49.466;11.086;2023-12-29T14:18:53;1.40;;;1.30;;
1414;SDS011;702;49.466;11.086;2023-12-29T14:21:22;1.50;;;1.40;;
1414;SDS011;702;49.466;11.086;2023-12-29T14:24:01;1.00;;;1.00;;
1414;SDS011;702;49.466;11.086;2023-12-29T14:26:38;3.10;;;1.57;;
1414;SDS011;702;49.466;11.086;2023-12-29T14:29:10;1.30;;;1.20;;
1414;SDS011;702;49.466;11.086;2023-12-29T14:31:42;3.63;;;1.63;;
1414;SDS011;702;49.466;11.086;2023-12-29T14:34:10;1.80;;;1.40;;
1414;SDS011;702;49.466;11.086;2023-12-29T14:36:39;0.90;;;0.90;;
1414;SDS011;702;49.466;11.086;2023-12-29T14:39:09;1.67;;;1.53;;
1414;SDS011;702;49.466;11.086;2023-12-29T14:41:37;1.60;;;1.30;;
1414;SDS011;702;49.466;11.086;2023-12-29T14:44:04;1.50;;;1.40;;
1414;SDS011;702;49.466;11.086;2023-12-29T14:46:32;1.50;;;1.40;;
1414;SDS011;702;49.466;11.086;2023-12-29T14:49:01;2.03;;;1.33;;
1414;SDS011;702;49.466;11.086;2023-12-29T14:51:29;1.80;;;1.13;;
1414;SDS011;702;49.466;11.086;2023-12-29T14:53:57;2.60;;;1.30;;
1414;SDS011;702;49.466;11.086;2023-12-29T14:56:30;1.27;;;1.00;;
1414;SDS011;702;49.466;11.086;2023-12-29T14:58:57;1.30;;;1.10;;
1414;SDS011;702;49.466;11.086;2023-12-29T15:01:26;1.30;;;1.20;;
1414;SDS011;702;49.466;11.086;2023-12-29T15:03:53;3.30;;;1.33;;
1414;SDS011;702;49.466;11.086;2023-12-29T15:06:20;1.57;;;1.40;;
1414;SDS011;702;49.466;11.086;2023-12-29T15:08:51;1.60;;;1.30;;
1414;SDS011;702;49.466;11.086;2023-12-29T15:11:18;1.50;;;1.40;;
1414;SDS011;702;49.466;11.086;2023-12-29T15:13:48;1.67;;;1.40;;
1414;SDS011;702;49.466;11.086;2023-12-29T15:16:17;1.70;;;1.40;;
1414;SDS011;702;49.466;11.086;2023-12-29T15:18:45;1.50;;;1.40;;
1414;SDS011;702;49.466;11.086;2023-12-29T15:21:12;1.83;;;1.30;;
1414;SDS011;702;49.466;11.086;2023-12-29T15:23:40;1.20;;;1.10;;
1414;SDS011;702;49.466;11.086;2023-12-29T15:26:08;1.27;;;1.00;;
1414;SDS011;702;49.466;11.086;2023-12-29T15:28:39;1.23;;;1.13;;
1414;SDS011;702;49.466;11.086;2023-12-29T15:31:10;1.97;;;1.73;;
1414;SDS011;702;49.466;11.086;2023-12-29T15:33:41;3.43;;;1.70;;